Airfield :
LOGIN :

Register | Disclaimer

   EN    FR    IT 

 










Legend :    VFR   Marginal VFR   IFR   Intensive IFR   Very Intensive IFR
Visi :
Ceiling :
>= 8 km
>= 3000ft
5 to 8 km
1000 to 3000 ft
1500m to 5 km
500 to 1000 ft
800 to 1500m
200 to 500 ft
< 800m
< 200 ft
Symbols :   Thunderstorms  Fog  Heavy snow  Heavy precipitations  Wind > 20 kt
SIGMETs :     Misc.  Thunderstorms  Icing  Turbulence  Mountain Waves  Volcanic Ashes






- Airport Elevation : 1302 ft
- IATA code : GNB


LFLS - Grenoble / St. Geoirs

CURRENT METAR :
  • 282130Z AUTO 15003KT 100V220 CAVOK 17/09 Q1021

EXPIRED METARs :
  • 282100Z AUTO 11003KT 070V150 CAVOK 18/09 Q1021
  • 282030Z AUTO 35003KT 320V040 CAVOK 18/08 Q1021
  • 282000Z AUTO VRB02KT CAVOK 18/09 Q1022
  • 281930Z AUTO 34006KT CAVOK 19/09 Q1021 NOSIG
  • 281900Z AUTO 34008KT CAVOK 20/09 Q1021 NOSIG

TAF TAF LFLS
Valid from the 28 at 15:00 until the 29 at 15:00 UTC


281400Z 2815/2915 VRB02KT CAVOK
TEMPO 2815/2821 36008KT
BECMG 2907/2909 03006KT
ATIS : +33 4 76 65 55 89



MET'MAP, your aeronautical weather chart ! - Copyright ORBIFLY December 2007 - Disclaimer

ORBIFLY MET'MAP TEAM :

Programming & Development : Alexandra Zaïnal
Concept & original design : Baudouin d'Aumeries
Assistance for programming : Marc-Olivier Méhu
Technical & hardware support : Manuel Goepfert

Contact : metmap@orbifly.com




SOURCES & CREDITS :

   NOAA